D/T METAR WX W/DIR W/SPE G/SPE TEMP DEWP
19/03/19 03:00 EICK 190300Z 24006KT 9999 FEW014 BKN022 05/05 Q1025 NOSIG WSW (240°) 6.9mph 5°C 5°C
19/03/19 02:30 EICK 190230Z 24006KT 9999 FEW014 BKN021 04/04 Q1025 NOSIG WSW (240°) 6.9mph 4°C 4°C
19/03/19 02:00 EICK 190200Z 21005KT 9999 FEW014 SCT021 04/03 Q1026 NOSIG SSW (210°) 5.8mph 4°C 3°C
19/03/19 01:30 EICK 190130Z 24006KT 9999 FEW014 SCT022 05/05 Q1026 NOSIG WSW (240°) 6.9mph 5°C 5°C
19/03/19 01:00 EICK 190100Z 25006KT 9999 FEW014 SCT022 06/05 Q1026 NOSIG WSW (250°) 6.9mph 6°C 5°C
19/03/19 00:30 EICK 190030Z 24005KT 9999 FEW015 BKN022 07/05 Q1026 NOSIG WSW (240°) 5.8mph 7°C 5°C
19/03/19 00:00 EICK 190000Z 27005KT 9999 FEW015 BKN021 07/05 Q1026 NOSIG W (270°) 5.8mph 7°C 5°C
18/03/19 23:30 EICK 182330Z 25005KT 9999 FEW015 BKN022 07/05 Q1026 NOSIG WSW (250°) 5.8mph 7°C 5°C
18/03/19 23:00 EICK 182300Z 26006KT 9999 FEW015 BKN022 07/05 Q1026 NOSIG W (260°) 6.9mph 7°C 5°C
18/03/19 22:30 EICK 182230Z 28007KT 9999 FEW018 BKN130 07/06 Q1026 NOSIG W (280°) 8.1mph 7°C 6°C
18/03/19 22:00 EICK 182200Z 26005KT 9999 FEW018 BKN130 08/06 Q1026 NOSIG W (260°) 5.8mph 8°C 6°C
18/03/19 21:30 EICK 182130Z 28006KT 9999 FEW018 BKN130 08/05 Q1026 NOSIG W (280°) 6.9mph 8°C 5°C
18/03/19 21:00 EICK 182100Z 29009KT 9999 FEW020 BKN130 08/05 Q1026 NOSIG WNW (290°) 10.4mph 8°C 5°C
18/03/19 20:30 EICK 182030Z 28008KT 9999 FEW020 BKN130 08/05 Q1025 NOSIG W (280°) 9.2mph 8°C 5°C
18/03/19 20:00 EICK 182000Z 27006KT 9999 FEW020 BKN120 08/05 Q1025 NOSIG W (270°) 6.9mph 8°C 5°C
18/03/19 19:30 EICK 181930Z 30009KT 9999 FEW018 BKN140 09/05 Q1025 NOSIG WNW (300°) 10.4mph 9°C 5°C
18/03/19 19:00 EICK 181900Z 29005KT 260V320 9999 FEW018 BKN140 BKN250 09/05 Q1024 NOSIG WNW (290°) 5.8mph 9°C 5°C
18/03/19 18:30 EICK 181830Z 29009KT 9999 FEW012 SCT070 BKN120 09/05 Q1024 NOSIG WNW (290°) 10.4mph 9°C 5°C
18/03/19 18:00 EICK 181800Z 31012KT 9999 FEW012 SCT036 BKN080 09/05 Q1024 NOSIG NW (310°) 13.8mph 9°C 5°C
18/03/19 17:30 EICK 181730Z 30010KT 9999 FEW012 SCT018 BKN080 10/06 Q1024 NOSIG WNW (300°) 11.5mph 10°C 6°C
18/03/19 17:00 EICK 181700Z 30010KT 9999 FEW012 SCT018 BKN090 10/06 Q1023 NOSIG WNW (300°) 11.5mph 10°C 6°C
18/03/19 16:30 EICK 181630Z 30009KT 9999 FEW012 SCT018 BKN100 10/06 Q1023 NOSIG WNW (300°) 10.4mph 10°C 6°C
18/03/19 16:00 EICK 181600Z 30009KT 9999 FEW012 SCT018 BKN042 10/06 Q1023 NOSIG WNW (300°) 10.4mph 10°C 6°C
18/03/19 15:30 EICK 181530Z 29013KT 9999 FEW011 SCT018 BKN032 10/06 Q1023 NOSIG WNW (290°) 15.0mph 10°C 6°C
18/03/19 15:00 EICK 181500Z 29014KT 9999 FEW011 BKN018 BKN035 10/06 Q1023 NOSIG WNW (290°) 16.1mph 10°C 6°C
18/03/19 14:30 EICK 181430Z 27014KT 9999 FEW012 SCT018 BKN024 10/07 Q1023 NOSIG W (270°) 16.1mph 10°C 7°C
18/03/19 14:00 EICK 181400Z 29013KT 9999 FEW011 BKN018 BKN030 09/06 Q1023 NOSIG WNW (290°) 15.0mph 9°C 6°C
18/03/19 13:30 EICK 181330Z 29014KT 9999 VCSH FEW011 SCT016 BKN030 09/06 Q1023 TEMPO 5000 BKN010 VCSH WNW (290°) 16.1mph 9°C 6°C
18/03/19 13:00 EICK 181300Z 29012KT 9999 SCT010 BKN015 BKN030 08/07 Q1023 TEMPO 5000 BKN010 WNW (290°) 13.8mph 8°C 7°C
18/03/19 12:30 EICK 181230Z 28012KT 9999 SCT008 BKN014 BKN040 08/07 Q1023 TEMPO 5000 BKN010 W (280°) 13.8mph 8°C 7°C
18/03/19 12:00 EICK 181200Z 27008KT 9999 -SHRA SCT010 BKN015 BKN040 08/06 Q1023 TEMPO 5000 BKN010 -SHRA W (270°) 9.2mph 8°C 6°C
18/03/19 11:30 EICK 181130Z 27012KT 9999 -SHRA SCT011 BKN016 08/06 Q1023 TEMPO 5000 BKN010 -SHRA W (270°) 13.8mph 8°C 6°C
18/03/19 11:00 EICK 181100Z 27012KT 9999 BKN015 BKN050 08/05 Q1023 NOSIG W (270°) 13.8mph 8°C 5°C
18/03/19 10:30 EICK 181030Z 27011KT 9999 FEW015 SCT022 BKN060 08/05 Q1022 NOSIG W (270°) 12.7mph 8°C 5°C
18/03/19 10:00 EICK 181000Z 26010KT 9999 SCT015 BKN022 BKN120 07/05 Q1022 NOSIG W (260°) 11.5mph 7°C 5°C
18/03/19 09:30 EICK 180930Z 24007KT 9999 FEW008 BKN018 BKN120 07/05 Q1022 NOSIG WSW (240°) 8.1mph 7°C 5°C
18/03/19 09:00 EICK 180900Z 24009KT 9999 FEW008 SCT015 BKN120 07/05 Q1022 NOSIG WSW (240°) 10.4mph 7°C 5°C
18/03/19 08:30 EICK 180830Z 25009KT 9999 FEW006 SCT022 BKN120 06/05 Q1021 NOSIG WSW (250°) 10.4mph 6°C 5°C
18/03/19 08:00 EICK 180800Z 25007KT 9999 -SHRA SCT015 SCT030 BKN070 06/04 Q1022 NOSIG -SHRA WSW (250°) 8.1mph 6°C 4°C
18/03/19 07:30 EICK 180730Z 24007KT 9999 FEW014 SCT022 BKN070 05/04 Q1022 NOSIG WSW (240°) 8.1mph 5°C 4°C
18/03/19 07:00 EICK 180700Z 24007KT 9999 FEW015 BKN070 05/04 Q1021 NOSIG WSW (240°) 8.1mph 5°C 4°C
18/03/19 06:30 EICK 180630Z 24007KT 9999 FEW015 BKN070 05/03 Q1021 NOSIG WSW (240°) 8.1mph 5°C 3°C
18/03/19 06:00 EICK 180600Z 25008KT 9999 FEW022 BKN070 05/03 Q1021 NOSIG WSW (250°) 9.2mph 5°C 3°C
18/03/19 05:30 EICK 180530Z 24006KT 9999 FEW022 BKN070 05/03 Q1021 NOSIG WSW (240°) 6.9mph 5°C 3°C
18/03/19 05:00 EICK 180500Z 25006KT 9999 FEW020 BKN070 05/03 Q1021 NOSIG WSW (250°) 6.9mph 5°C 3°C
18/03/19 04:30 EICK 180430Z 25004KT 9999 FEW022 BKN070 05/03 Q1021 NOSIG WSW (250°) 4.6mph 5°C 3°C
18/03/19 04:00 EICK 180400Z 27005KT 9999 FEW022 BKN070 05/02 Q1021 NOSIG W (270°) 5.8mph 5°C 2°C
18/03/19 03:30 EICK 180330Z 27008KT 9999 FEW022 BKN060 05/03 Q1021 NOSIG W (270°) 9.2mph 5°C 3°C
18/03/19 03:00 EICK 180300Z 28008KT 9999 FEW022 BKN070 05/03 Q1022 NOSIG W (280°) 9.2mph 5°C 3°C
18/03/19 02:30 EICK 180230Z 27008KT 9999 FEW022 BKN070 05/03 Q1022 NOSIG W (270°) 9.2mph 5°C 3°C
18/03/19 02:00 EICK 180200Z 27008KT 9999 FEW022 BKN080 05/02 Q1022 NOSIG W (270°) 9.2mph 5°C 2°C
18/03/19 01:30 EICK 180130Z 26009KT 9999 FEW023 BKN080 05/03 Q1022 NOSIG W (260°) 10.4mph 5°C 3°C
18/03/19 01:00 EICK 180100Z 25009KT 9999 FEW023 BKN090 05/03 Q1021 NOSIG WSW (250°) 10.4mph 5°C 3°C
18/03/19 00:30 EICK 180030Z 25008KT 9999 FEW023 BKN090 05/03 Q1022 NOSIG WSW (250°) 9.2mph 5°C 3°C
18/03/19 00:00 EICK 180000Z 27007KT 9999 FEW023 SCT045 BKN090 06/03 Q1021 NOSIG W (270°) 8.1mph 6°C 3°C
17/03/19 23:30 EICK 172330Z 28008KT 9999 SCT023 BKN100 05/03 Q1022 NOSIG W (280°) 9.2mph 5°C 3°C
17/03/19 23:00 EICK 172300Z 29010KT 9999 FEW024 SCT110 05/03 Q1021 NOSIG WNW (290°) 11.5mph 5°C 3°C
17/03/19 22:30 EICK 172230Z 29012KT 9999 FEW024 05/03 Q1021 NOSIG WNW (290°) 13.8mph 5°C 3°C
17/03/19 22:00 EICK 172200Z 28011KT 9999 FEW025 05/03 Q1021 NOSIG W (280°) 12.7mph 5°C 3°C
17/03/19 21:30 EICK 172130Z 28009KT 9999 FEW025 05/03 Q1021 NOSIG W (280°) 10.4mph 5°C 3°C
17/03/19 21:00 EICK 172100Z 30012KT 9999 FEW025 06/03 Q1020 NOSIG WNW (300°) 13.8mph 6°C 3°C
17/03/19 20:30 EICK 172030Z 29012KT 9999 SCT025 06/02 Q1020 NOSIG WNW (290°) 13.8mph 6°C 2°C
17/03/19 20:00 EICK 172000Z 30010KT 9999 FEW025 SCT220 06/02 Q1019 NOSIG WNW (300°) 11.5mph 6°C 2°C
17/03/19 19:30 EICK 171930Z 30011KT 9999 FEW025 06/02 Q1019 NOSIG WNW (300°) 12.7mph 6°C 2°C
17/03/19 19:00 EICK 171900Z 30014KT 9999 FEW025 07/02 Q1019 NOSIG WNW (300°) 16.1mph 7°C 2°C
17/03/19 18:30 EICK 171830Z 30015KT 9999 FEW025 07/02 Q1018 NOSIG WNW (300°) 17.3mph 7°C 2°C
17/03/19 18:00 EICK 171800Z 30019KT 9999 FEW025 08/02 Q1017 NOSIG WNW (300°) 21.9mph 8°C 2°C
17/03/19 17:30 EICK 171730Z 30022KT 9999 FEW018 SCT030 08/03 Q1017 NOSIG WNW (300°) 25.3mph 8°C 3°C
17/03/19 17:00 EICK 171700Z 30022KT 9999 FEW018CB BKN030 09/02 Q1016 NOSIG WNW (300°) 25.3mph 9°C 2°C
17/03/19 16:30 EICK 171630Z 31021KT 9999 FEW018CB BKN027 08/03 Q1016 NOSIG NW (310°) 24.2mph 8°C 3°C
17/03/19 16:00 EICK 171600Z 30023KT 9999 SCT018CB BKN025 08/04 Q1015 NOSIG WNW (300°) 26.5mph 8°C 4°C
17/03/19 15:30 EICK 171530Z 30023G34KT 9999 -SHRA SCT018CB BKN028 08/04 Q1015 NOSIG -SHRA WNW (300°) 26.5mph 39.1mph 8°C 4°C
17/03/19 15:00 EICK 171500Z 30024G36KT 9999 BKN027 09/03 Q1014 NOSIG WNW (300°) 27.6mph 41.4mph 9°C 3°C
17/03/19 14:30 EICK 171430Z 30022G39KT 9999 BKN027 09/03 Q1014 NOSIG WNW (300°) 25.3mph 44.9mph 9°C 3°C
17/03/19 14:00 EICK 171400Z 29021KT 9999 FEW018CB BKN029 09/03 Q1013 NOSIG WNW (290°) 24.2mph 9°C 3°C
17/03/19 13:30 EICK 171330Z 30026KT 9999 -SHRA FEW018CB BKN028 09/03 Q1013 NOSIG -SHRA WNW (300°) 29.9mph 9°C 3°C
17/03/19 13:00 EICK 171300Z 30027G40KT 9999 FEW028 09/02 Q1012 NOSIG WNW (300°) 31.1mph 46.0mph 9°C 2°C
17/03/19 12:30 EICK 171230Z 31025KT 9999 FEW018CB 09/02 Q1012 NOSIG NW (310°) 28.8mph 9°C 2°C
17/03/19 12:00 EICK 171200Z 29022KT 9999 FEW018CB SCT028 08/03 Q1012 NOSIG WNW (290°) 25.3mph 8°C 3°C
17/03/19 11:30 EICK 171130Z 30019KT 9999 SCT026 07/03 Q1011 NOSIG WNW (300°) 21.9mph 7°C 3°C
17/03/19 11:00 EICK 171100Z 30020KT 9999 SCT026 08/02 Q1011 NOSIG WNW (300°) 23.0mph 8°C 2°C
17/03/19 10:30 EICK 171030Z 30018KT 9999 FEW024 07/02 Q1010 NOSIG WNW (300°) 20.7mph 7°C 2°C
17/03/19 10:00 EICK 171000Z 31019KT 9999 FEW025 06/02 Q1010 NOSIG NW (310°) 21.9mph 6°C 2°C
17/03/19 09:30 EICK 170930Z 29017KT 9999 FEW020 05/02 Q1009 NOSIG WNW (290°) 19.6mph 5°C 2°C
17/03/19 09:00 EICK 170900Z 30013KT 9999 FEW018CB 04/02 Q1009 NOSIG WNW (300°) 15.0mph 4°C 2°C
17/03/19 08:30 EICK 170830Z 30013KT 9999 FEW018CB 03/01 Q1008 NOSIG WNW (300°) 15.0mph 3°C 1°C
17/03/19 08:00 EICK 170800Z 29008KT 9999 FEW016CB 02/01 Q1007 NOSIG WNW (290°) 9.2mph 2°C 1°C
17/03/19 07:30 EICK 170730Z 28007KT 9999 FEW016CB 02/01 Q1007 NOSIG W (280°) 8.1mph 2°C 1°C
17/03/19 07:00 EICK 170700Z 30007KT 9999 FEW012CB 02/01 Q1006 NOSIG WNW (300°) 8.1mph 2°C 1°C
17/03/19 06:30 EICK 170630Z 30008KT 9999 SCT018CB 02/01 Q1006 NOSIG WNW (300°) 9.2mph 2°C 1°C
17/03/19 06:00 EICK 170600Z 28012KT 9999 -SHRAGS BKN022CB 02/01 Q1005 NOSIG -SHRA -SHGS W (280°) 13.8mph 2°C 1°C
17/03/19 05:30 EICK 170530Z 26011KT 9999 FEW024 SCT060 01/00 Q1004 NOSIG W (260°) 12.7mph 1°C 0°C
17/03/19 05:00 EICK 170500Z 25007KT 9999 FEW024 BKN080 01/00 Q1004 NOSIG WSW (250°) 8.1mph 1°C 0°C
17/03/19 04:30 EICK 170430Z 25006KT 9999 FEW024 SCT060 00/M01 Q1004 NOSIG WSW (250°) 6.9mph 0°C -1°C
17/03/19 04:00 EICK 170400Z 26007KT 9999 -SHRASN FEW024 BKN039 01/00 Q1004 NOSIG -SHRA -SHSN W (260°) 8.1mph 1°C 0°C
17/03/19 03:30 EICK 170330Z 27011KT 9999 FEW024 SCT130 01/M00 Q1004 NOSIG W (270°) 12.7mph 1°C 0°C
17/03/19 03:00 EICK 170300Z 27012KT 9999 FEW036 01/M00 Q1004 NOSIG W (270°) 13.8mph 1°C 0°C
17/03/19 02:30 EICK 170230Z 27010KT 9999 FEW021 SCT038 01/00 Q1004 NOSIG W (270°) 11.5mph 1°C 0°C
17/03/19 02:00 EICK 170200Z 26009KT 9999 FEW021 01/M00 Q1004 NOSIG W (260°) 10.4mph 1°C 0°C
17/03/19 01:30 EICK 170130Z 26010KT 9999 -SHRASN SCT022CB 01/M00 Q1004 NOSIG -SHRA -SHSN W (260°) 11.5mph 1°C 0°C
17/03/19 01:00 EICK 170100Z 27012KT 9999 FEW018 01/M01 Q1003 NOSIG W (270°) 13.8mph 1°C -1°C
17/03/19 00:30 EICK 170030Z 28013KT 9999 FEW018CB 01/M00 Q1003 NOSIG W (280°) 15.0mph 1°C 0°C
17/03/19 00:00 EICK 170000Z 27014KT 9999 FEW018CB 01/00 Q1003 NOSIG W (270°) 16.1mph 1°C 0°C
16/03/19 23:30 EICK 162330Z 28015KT 9999 -SHRA FEW005 FEW015CB SCT023 02/M00 Q1003 NOSIG -SHRA W (280°) 17.3mph 2°C 0°C
16/03/19 23:00 EICK 162300Z 28012KT 9999 FEW005 FEW012CB 01/00 Q1002 NOSIG W (280°) 13.8mph 1°C 0°C
16/03/19 22:30 EICK 162230Z 28010KT 9999 FEW003 FEW012CB 01/00 Q1001 NOSIG W (280°) 11.5mph 1°C 0°C
16/03/19 22:00 EICK 162200Z 30022G34KT 1600 -SHRASN FEW003 SCT005 BKN012CB 02/01 Q1002 TEMPO 5000 -SHRA -SHSN WNW (300°) 25.3mph 39.1mph 2°C 1°C
16/03/19 21:30 EICK 162130Z 29012KT 9999 FEW013CB 02/01 Q1001 NOSIG WNW (290°) 13.8mph 2°C 1°C
16/03/19 21:00 EICK 162100Z 29011KT 9999 FEW015CB 02/01 Q1000 NOSIG WNW (290°) 12.7mph 2°C 1°C
16/03/19 20:30 EICK 162030Z 28012KT 9999 FEW013CB 02/01 Q1000 NOSIG W (280°) 13.8mph 2°C 1°C
16/03/19 20:00 EICK 162000Z 29018KT 7000 -SHRA FEW008 BKN013CB BKN020 02/01 Q1000 NOSIG -SHRA WNW (290°) 20.7mph 2°C 1°C
16/03/19 19:30 EICK 161930Z 29012KT 9999 SCT018CB SCT036 03/02 Q0999 NOSIG WNW (290°) 13.8mph 3°C 2°C
16/03/19 19:00 EICK 161900Z 28016KT 9999 FEW018CB 04/01 Q0998 NOSIG W (280°) 18.4mph 4°C 1°C
16/03/19 18:30 EICK 161830Z 29016G29KT 9999 FEW018CB SCT020 05/02 Q0998 NOSIG WNW (290°) 18.4mph 33.4mph 5°C 2°C
16/03/19 18:00 EICK 161800Z 29014KT 9999 FEW018CB 05/02 Q0997 NOSIG WNW (290°) 16.1mph 5°C 2°C
16/03/19 17:30 EICK 161730Z 30018KT 9999 FEW018CB SCT021 05/02 Q0997 NOSIG WNW (300°) 20.7mph 5°C 2°C
16/03/19 17:00 EICK 161700Z 30018KT 9999 FEW018CB SCT021 05/03 Q0996 NOSIG WNW (300°) 20.7mph 5°C 3°C
16/03/19 16:30 EICK 161630Z 30019KT 9999 FEW018CB BKN021 07/03 Q0996 NOSIG WNW (300°) 21.9mph 7°C 3°C
16/03/19 16:00 EICK 161600Z 29017KT 9999 FEW018CB SCT020 BKN070 06/04 Q0995 NOSIG WNW (290°) 19.6mph 6°C 4°C
16/03/19 15:30 EICK 161530Z 29020G30KT 9999 BKN018 BKN070 06/03 Q0995 NOSIG WNW (290°) 23.0mph 34.5mph 6°C 3°C
16/03/19 15:00 EICK 161500Z 30018KT 9999 BKN015 BKN070 06/04 Q0995 NOSIG WNW (300°) 20.7mph 6°C 4°C
16/03/19 14:30 EICK 161430Z 29013KT 9999 FEW016 SCT019 BKN048 07/05 Q0994 NOSIG WNW (290°) 15.0mph 7°C 5°C
16/03/19 14:00 EICK 161400Z 30021KT 9999 BKN016 BKN030 07/05 Q0994 NOSIG WNW (300°) 24.2mph 7°C 5°C
16/03/19 13:30 EICK 161330Z 29018KT 9999 -RA FEW009 BKN012 07/05 Q0993 NOSIG -RA WNW (290°) 20.7mph 7°C 5°C
16/03/19 13:00 EICK 161300Z 26018KT 9999 -RA FEW009 BKN016 BKN030 09/07 Q0993 BECMG 29016G27KT -RA W (260°) 20.7mph 9°C 7°C
16/03/19 12:30 EICK 161230Z 25019KT 9999 -RA FEW009 BKN014 BKN030 09/08 Q0993 BECMG 29016G27KT -RA WSW (250°) 21.9mph 9°C 8°C
16/03/19 12:00 EICK 161200Z 24018KT 9999 FEW009 BKN012 BKN050 10/08 Q0992 BECMG 29016G27KT WSW (240°) 20.7mph 10°C 8°C
16/03/19 11:30 EICK 161130Z 24017KT 9999 SCT009 BKN050 10/09 Q0992 TEMPO 4000 BKN008 WSW (240°) 19.6mph 10°C 9°C
16/03/19 11:00 EICK 161100Z 24020KT 9999 -RA SCT006 SCT010 BKN048 10/10 Q0992 TEMPO 4000 BKN008 -RA WSW (240°) 23.0mph 10°C 10°C
16/03/19 10:30 EICK 161030Z 23027G40KT 6000 -RA OVC006 10/10 Q0992 TEMPO BKN003 -RA SW (230°) 31.1mph 46.0mph 10°C 10°C
16/03/19 10:00 EICK 161000Z 23030G42KT 8000 -RA OVC005 10/10 Q0992 TEMPO BKN003 -RA SW (230°) 34.5mph 48.3mph 10°C 10°C
16/03/19 09:30 EICK 160930Z 23027G37KT 5000 -RA OVC005 10/10 Q0993 TEMPO BKN003 -RA SW (230°) 31.1mph 42.6mph 10°C 10°C
16/03/19 09:00 EICK 160900Z 23028G44KT 5000 -RADZ OVC005 10/10 Q0993 TEMPO BKN003 -RA -DZ SW (230°) 32.2mph 50.6mph 10°C 10°C
16/03/19 08:30 EICK 160830Z 23030G41KT 4000 -RADZ OVC005 10/09 Q0994 TEMPO BKN003 -RA -DZ SW (230°) 34.5mph 47.2mph 10°C 9°C
16/03/19 08:00 EICK 160800Z 23026G38KT 4000 -RADZ OVC006 10/09 Q0994 TEMPO BKN003 -RA -DZ SW (230°) 29.9mph 43.7mph 10°C 9°C
16/03/19 07:30 EICK 160730Z 23027G39KT 4000 -RADZ OVC005 10/09 Q0995 NOSIG -RA -DZ SW (230°) 31.1mph 44.9mph 10°C 9°C
16/03/19 07:00 EICK 160700Z 23026G38KT 3000 -RA OVC004 10/09 Q0995 NOSIG -RA SW (230°) 29.9mph 43.7mph 10°C 9°C
16/03/19 06:30 EICK 160630Z 23027G40KT 3000 -RA OVC004 10/09 Q0996 NOSIG -RA SW (230°) 31.1mph 46.0mph 10°C 9°C
16/03/19 06:00 EICK 160600Z 23027G38KT 3000 -RA OVC005 10/09 Q0996 NOSIG -RA SW (230°) 31.1mph 43.7mph 10°C 9°C
16/03/19 05:30 EICK 160530Z 23029G40KT 6000 -RA OVC008 10/09 Q0996 NOSIG -RA SW (230°) 33.4mph 46.0mph 10°C 9°C
16/03/19 05:00 EICK 160500Z 23025G37KT 5000 -RA OVC009 10/09 Q0997 NOSIG -RA SW (230°) 28.8mph 42.6mph 10°C 9°C
16/03/19 04:30 EICK 160430Z 23027G40KT 9999 OVC009 10/09 Q0998 TEMPO 5000 SW (230°) 31.1mph 46.0mph 10°C 9°C
16/03/19 04:00 EICK 160400Z 23029G40KT 9999 OVC009 10/09 Q0998 TEMPO 5000 SW (230°) 33.4mph 46.0mph 10°C 9°C
16/03/19 03:30 EICK 160330Z 23028G40KT 9999 OVC010 10/08 Q0999 TEMPO 5000 SW (230°) 32.2mph 46.0mph 10°C 8°C